sensor_id;sensor_type;location;lat;lon;timestamp;pressure;altitude;pressure_sealevel;temperature;humidity
22181;BME280;11256;50.830;12.834;2024-01-15T00:02:35;95826.06;;;0.91;77.00
22181;BME280;11256;50.830;12.834;2024-01-15T00:07:35;95818.91;;;0.96;77.01
22181;BME280;11256;50.830;12.834;2024-01-15T00:12:36;95802.34;;;0.89;77.05
22181;BME280;11256;50.830;12.834;2024-01-15T00:17:36;95789.03;;;0.84;77.26
22181;BME280;11256;50.830;12.834;2024-01-15T00:22:36;95811.41;;;0.93;77.21
22181;BME280;11256;50.830;12.834;2024-01-15T00:27:37;95799.97;;;0.88;77.25
22181;BME280;11256;50.830;12.834;2024-01-15T00:32:37;95787.69;;;0.92;77.05
22181;BME280;11256;50.830;12.834;2024-01-15T00:37:37;95788.50;;;0.82;77.06
22181;BME280;11256;50.830;12.834;2024-01-15T00:42:38;95788.75;;;0.81;77.30
22181;BME280;11256;50.830;12.834;2024-01-15T00:47:38;95769.56;;;0.79;77.28
22181;BME280;11256;50.830;12.834;2024-01-15T00:52:38;95772.75;;;0.81;77.05
22181;BME280;11256;50.830;12.834;2024-01-15T00:57:39;95767.97;;;0.78;77.09
22181;BME280;11256;50.830;12.834;2024-01-15T01:02:39;95790.63;;;0.85;77.07
22181;BME280;11256;50.830;12.834;2024-01-15T01:07:40;95767.16;;;0.87;76.54
22181;BME280;11256;50.830;12.834;2024-01-15T01:12:40;95766.66;;;0.85;76.54
22181;BME280;11256;50.830;12.834;2024-01-15T01:17:40;95746.41;;;0.79;77.14
22181;BME280;11256;50.830;12.834;2024-01-15T01:22:41;95727.19;;;0.82;76.73
22181;BME280;11256;50.830;12.834;2024-01-15T01:27:42;95729.84;;;0.77;76.95
22181;BME280;11256;50.830;12.834;2024-01-15T01:32:42;95729.34;;;0.70;77.09
22181;BME280;11256;50.830;12.834;2024-01-15T01:37:42;95714.69;;;0.68;77.21
22181;BME280;11256;50.830;12.834;2024-01-15T01:42:43;95689.13;;;0.62;76.70
22181;BME280;11256;50.830;12.834;2024-01-15T01:47:43;95686.97;;;0.64;76.80
22181;BME280;11256;50.830;12.834;2024-01-15T01:52:43;95717.91;;;0.60;76.65
22181;BME280;11256;50.830;12.834;2024-01-15T01:57:44;95754.13;;;0.61;76.76
22181;BME280;11256;50.830;12.834;2024-01-15T02:02:45;95755.19;;;0.60;76.70
22181;BME280;11256;50.830;12.834;2024-01-15T02:07:45;95750.38;;;0.57;76.66
22181;BME280;11256;50.830;12.834;2024-01-15T02:12:45;95755.97;;;0.55;76.47
22181;BME280;11256;50.830;12.834;2024-01-15T02:18:04;95748.53;;;0.52;76.16
22181;BME280;11256;50.830;12.834;2024-01-15T02:28:11;95748.78;;;0.46;76.29
22181;BME280;11256;50.830;12.834;2024-01-15T02:33:12;95770.91;;;0.46;76.21
22181;BME280;11256;50.830;12.834;2024-01-15T02:38:12;95743.97;;;0.33;75.87
22181;BME280;11256;50.830;12.834;2024-01-15T02:43:13;95762.59;;;0.43;75.98
22181;BME280;11256;50.830;12.834;2024-01-15T02:48:13;95749.28;;;0.43;76.42
22181;BME280;11256;50.830;12.834;2024-01-15T02:53:14;95758.34;;;0.42;75.80
22181;BME280;11256;50.830;12.834;2024-01-15T02:58:14;95750.34;;;0.37;76.32
22181;BME280;11256;50.830;12.834;2024-01-15T03:03:14;95759.41;;;0.36;76.07
22181;BME280;11256;50.830;12.834;2024-01-15T03:08:15;95763.13;;;0.35;76.12
22181;BME280;11256;50.830;12.834;2024-01-15T03:13:15;95747.13;;;0.25;76.28
22181;BME280;11256;50.830;12.834;2024-01-15T03:18:15;95757.81;;;0.30;76.35
22181;BME280;11256;50.830;12.834;2024-01-15T03:23:16;95757.81;;;0.30;76.06
22181;BME280;11256;50.830;12.834;2024-01-15T03:28:16;95750.88;;;0.29;76.21
22181;BME280;11256;50.830;12.834;2024-01-15T03:33:16;95747.13;;;0.25;76.18
22181;BME280;11256;50.830;12.834;2024-01-15T03:38:17;95757.25;;;0.23;75.85
22181;BME280;11256;50.830;12.834;2024-01-15T03:43:17;95754.34;;;0.19;76.12
22181;BME280;11256;50.830;12.834;2024-01-15T03:48:17;95761.50;;;0.19;76.02
22181;BME280;11256;50.830;12.834;2024-01-15T03:53:18;95760.97;;;0.12;75.97
22181;BME280;11256;50.830;12.834;2024-01-15T03:58:18;95732.16;;;-0.01;76.38
22181;BME280;11256;50.830;12.834;2024-01-15T04:03:18;95746.28;;;-0.01;75.77
22181;BME280;11256;50.830;12.834;2024-01-15T04:08:19;95740.94;;;-0.11;76.06
22181;BME280;11256;50.830;12.834;2024-01-15T04:13:19;95747.59;;;-0.03;75.97
22181;BME280;11256;50.830;12.834;2024-01-15T04:18:19;95726.81;;;-0.16;75.84
22181;BME280;11256;50.830;12.834;2024-01-15T04:23:20;95765.97;;;-0.02;75.97
22181;BME280;11256;50.830;12.834;2024-01-15T04:28:20;95757.16;;;-0.12;75.94
22181;BME280;11256;50.830;12.834;2024-01-15T04:33:20;95737.19;;;-0.24;75.73
22181;BME280;11256;50.830;12.834;2024-01-15T04:38:21;95748.13;;;-0.16;76.11
22181;BME280;11256;50.830;12.834;2024-01-15T04:43:24;95753.72;;;-0.13;76.00
22181;BME280;11256;50.830;12.834;2024-01-15T04:48:24;95755.53;;;-0.18;76.26
22181;BME280;11256;50.830;12.834;2024-01-15T04:53:25;95716.38;;;-0.38;76.11
22181;BME280;11256;50.830;12.834;2024-01-15T04:58:25;95729.63;;;-0.43;76.51
22181;BME280;11256;50.830;12.834;2024-01-15T05:03:27;95768.28;;;-0.25;76.04
22181;BME280;11256;50.830;12.834;2024-01-15T05:08:27;95769.38;;;-0.21;76.07
22181;BME280;11256;50.830;12.834;2024-01-15T05:13:28;95786.41;;;-0.17;76.04
22181;BME280;11256;50.830;12.834;2024-01-15T05:18:28;95778.38;;;-0.22;76.02
22181;BME280;11256;50.830;12.834;2024-01-15T05:23:28;95773.06;;;-0.22;76.31
22181;BME280;11256;50.830;12.834;2024-01-15T05:28:29;95780.00;;;-0.21;76.22
22181;BME280;11256;50.830;12.834;2024-01-15T05:33:29;95773.88;;;-0.22;76.13
22181;BME280;11256;50.830;12.834;2024-01-15T05:38:30;95785.34;;;-0.21;76.60
22181;BME280;11256;50.830;12.834;2024-01-15T05:43:30;95768.25;;;-0.30;76.34
22181;BME280;11256;50.830;12.834;2024-01-15T05:48:33;95777.06;;;-0.20;76.31
22181;BME280;11256;50.830;12.834;2024-01-15T05:53:34;95776.81;;;-0.18;76.14
22181;BME280;11256;50.830;12.834;2024-01-15T05:58:34;95764.06;;;-0.16;76.43
22181;BME280;11256;50.830;12.834;2024-01-15T06:03:34;95755.00;;;-0.20;75.85
22181;BME280;11256;50.830;12.834;2024-01-15T06:08:35;95762.16;;;-0.26;76.05
22181;BME280;11256;50.830;12.834;2024-01-15T06:13:35;95737.63;;;-0.43;75.78
22181;BME280;11256;50.830;12.834;2024-01-15T06:18:35;95736.31;;;-0.35;75.56
22181;BME280;11256;50.830;12.834;2024-01-15T06:23:37;95741.13;;;-0.32;75.51
22181;BME280;11256;50.830;12.834;2024-01-15T06:28:37;95722.97;;;-0.45;75.64
22181;BME280;11256;50.830;12.834;2024-01-15T06:33:37;95747.50;;;-0.38;75.92
22181;BME280;11256;50.830;12.834;2024-01-15T06:38:38;95735.22;;;-0.39;75.97
22181;BME280;11256;50.830;12.834;2024-01-15T06:43:38;95716.31;;;-0.47;76.11
22181;BME280;11256;50.830;12.834;2024-01-15T06:48:39;95735.22;;;-0.39;76.30
22181;BME280;11256;50.830;12.834;2024-01-15T06:53:39;95727.75;;;-0.47;76.07
22181;BME280;11256;50.830;12.834;2024-01-15T06:58:39;95739.50;;;-0.43;76.06
22181;BME280;11256;50.830;12.834;2024-01-15T07:03:40;95735.22;;;-0.49;76.04
22181;BME280;11256;50.830;12.834;2024-01-15T07:08:41;95739.19;;;-0.47;76.03
22181;BME280;11256;50.830;12.834;2024-01-15T07:13:41;95745.53;;;-0.52;76.19
22181;BME280;11256;50.830;12.834;2024-01-15T07:18:42;95742.63;;;-0.51;75.90
22181;BME280;11256;50.830;12.834;2024-01-15T07:23:42;95752.75;;;-0.48;75.84
22181;BME280;11256;50.830;12.834;2024-01-15T07:28:42;95738.41;;;-0.47;75.69
22181;BME280;11256;50.830;12.834;2024-01-15T07:33:43;95757.81;;;-0.42;75.72
22181;BME280;11256;50.830;12.834;2024-01-15T07:38:43;95757.25;;;-0.53;75.87
22181;BME280;11256;50.830;12.834;2024-01-15T07:43:43;95768.72;;;-0.48;75.85
22181;BME280;11256;50.830;12.834;2024-01-15T07:48:44;95756.75;;;-0.50;75.63
22181;BME280;11256;50.830;12.834;2024-01-15T07:53:44;95774.09;;;-0.38;75.83
22181;BME280;11256;50.830;12.834;2024-01-15T07:58:44;95759.16;;;-0.44;75.58
22181;BME280;11256;50.830;12.834;2024-01-15T08:03:45;95774.09;;;-0.38;75.67
22181;BME280;11256;50.830;12.834;2024-01-15T08:08:45;95733.03;;;-0.57;75.65
22181;BME280;11256;50.830;12.834;2024-01-15T08:13:45;95765.56;;;-0.40;75.73
22181;BME280;11256;50.830;12.834;2024-01-15T08:18:46;95773.53;;;-0.40;75.41
22181;BME280;11256;50.830;12.834;2024-01-15T08:23:47;95774.91;;;-0.32;75.42
22181;BME280;11256;50.830;12.834;2024-01-15T08:28:48;95778.38;;;-0.32;75.66
22181;BME280;11256;50.830;12.834;2024-01-15T08:33:48;95761.84;;;-0.39;75.81
22181;BME280;11256;50.830;12.834;2024-01-15T08:38:48;95730.91;;;-0.55;75.90
22181;BME280;11256;50.830;12.834;2024-01-15T08:43:49;95759.78;;;-0.27;75.12
22181;BME280;11256;50.830;12.834;2024-01-15T08:48:49;95765.91;;;-0.17;75.35
22181;BME280;11256;50.830;12.834;2024-01-15T08:53:49;95770.44;;;-0.12;75.02
22181;BME280;11256;50.830;12.834;2024-01-15T08:58:50;95768.84;;;-0.13;75.00
22181;BME280;11256;50.830;12.834;2024-01-15T09:03:50;95768.88;;;-0.08;74.81
22181;BME280;11256;50.830;12.834;2024-01-15T09:08:50;95776.34;;;-0.10;74.64
22181;BME280;11256;50.830;12.834;2024-01-15T09:13:51;95773.69;;;-0.05;74.57
22181;BME280;11256;50.830;12.834;2024-01-15T09:18:52;95768.88;;;-0.08;74.58
22181;BME280;11256;50.830;12.834;2024-01-15T09:23:52;95774.81;;;0.19;74.98
22181;BME280;11256;50.830;12.834;2024-01-15T09:28:52;95771.63;;;0.27;74.58
22181;BME280;11256;50.830;12.834;2024-01-15T09:33:53;95762.91;;;0.46;75.03
22181;BME280;11256;50.830;12.834;2024-01-15T09:38:56;95757.84;;;0.45;73.90
22181;BME280;11256;50.830;12.834;2024-01-15T09:43:56;95769.28;;;0.50;73.75
22181;BME280;11256;50.830;12.834;2024-01-15T09:48:57;95774.09;;;0.58;74.00
22181;BME280;11256;50.830;12.834;2024-01-15T09:53:58;95774.91;;;0.69;73.87
22181;BME280;11256;50.830;12.834;2024-01-15T09:58:58;95767.97;;;0.68;73.36
22181;BME280;11256;50.830;12.834;2024-01-15T10:03:58;95766.91;;;0.64;74.00
22181;BME280;11256;50.830;12.834;2024-01-15T10:08:59;95757.06;;;0.64;73.61
22181;BME280;11256;50.830;12.834;2024-01-15T10:14:00;95771.16;;;0.75;73.78
22181;BME280;11256;50.830;12.834;2024-01-15T10:19:01;95741.59;;;0.66;73.65
22181;BME280;11256;50.830;12.834;2024-01-15T10:24:02;95734.66;;;0.70;73.44
22181;BME280;11256;50.830;12.834;2024-01-15T10:29:02;95725.88;;;0.70;73.94
22181;BME280;11256;50.830;12.834;2024-01-15T10:34:13;95739.19;;;1.00;74.59
22181;BME280;11256;50.830;12.834;2024-01-15T10:39:15;95710.38;;;1.07;74.20
22181;BME280;11256;50.830;12.834;2024-01-15T10:44:16;95708.75;;;1.21;74.82
22181;BME280;11256;50.830;12.834;2024-01-15T10:49:18;95721.78;;;1.32;74.11
22181;BME280;11256;50.830;12.834;2024-01-15T10:54:21;95739.31;;;1.53;74.15
22181;BME280;11256;50.830;12.834;2024-01-15T10:59:23;95711.09;;;1.42;74.00
22181;BME280;11256;50.830;12.834;2024-01-15T11:04:24;95703.88;;;1.48;73.15
22181;BME280;11256;50.830;12.834;2024-01-15T11:09:26;95719.03;;;1.57;73.67
22181;BME280;11256;50.830;12.834;2024-01-15T11:14:40;95717.69;;;1.60;74.02
22181;BME280;11256;50.830;12.834;2024-01-15T11:19:50;95713.97;;;1.61;73.61
22181;BME280;11256;50.830;12.834;2024-01-15T11:24:50;95711.50;;;1.74;72.97
22181;BME280;11256;50.830;12.834;2024-01-15T11:30:02;95726.16;;;1.82;72.99
22181;BME280;11256;50.830;12.834;2024-01-15T11:35:04;95713.88;;;1.86;72.48
22181;BME280;11256;50.830;12.834;2024-01-15T11:40:06;95692.84;;;1.64;73.08
22181;BME280;11256;50.830;12.834;2024-01-15T11:45:11;95711.72;;;1.83;73.03
22181;BME280;11256;50.830;12.834;2024-01-15T11:50:11;95721.06;;;1.80;73.06
22181;BME280;11256;50.830;12.834;2024-01-15T11:55:14;95722.66;;;1.86;73.32
22181;BME280;11256;50.830;12.834;2024-01-15T12:00:18;95722.69;;;1.76;71.76
22181;BME280;11256;50.830;12.834;2024-01-15T12:05:19;95714.44;;;1.73;72.10
22181;BME280;11256;50.830;12.834;2024-01-15T12:10:20;95718.69;;;1.74;72.44
22181;BME280;11256;50.830;12.834;2024-01-15T12:15:21;95726.19;;;1.72;72.63
22181;BME280;11256;50.830;12.834;2024-01-15T12:20:23;95714.53;;;1.58;72.33
22181;BME280;11256;50.830;12.834;2024-01-15T12:25:24;95713.44;;;1.59;72.49
22181;BME280;11256;50.830;12.834;2024-01-15T12:30:29;95722.47;;;1.63;72.49
22181;BME280;11256;50.830;12.834;2024-01-15T12:35:29;95717.69;;;1.60;71.78
22181;BME280;11256;50.830;12.834;2024-01-15T12:40:31;95718.47;;;1.60;72.37
22181;BME280;11256;50.830;12.834;2024-01-15T12:45:36;95707.06;;;1.50;71.92
22181;BME280;11256;50.830;12.834;2024-01-15T12:50:37;95710.00;;;1.48;71.63
22181;BME280;11256;50.830;12.834;2024-01-15T12:55:38;95704.66;;;1.48;72.66
22181;BME280;11256;50.830;12.834;2024-01-15T13:00:38;95711.31;;;1.51;72.37
22181;BME280;11256;50.830;12.834;2024-01-15T13:05:38;95695.84;;;1.53;72.26
22181;BME280;11256;50.830;12.834;2024-01-15T13:10:39;95700.13;;;1.54;72.91
22181;BME280;11256;50.830;12.834;2024-01-15T13:15:42;95690.53;;;1.53;72.42
22181;BME280;11256;50.830;12.834;2024-01-15T13:20:42;95705.44;;;1.59;72.79
22181;BME280;11256;50.830;12.834;2024-01-15T13:25:43;95709.97;;;1.58;72.33
22181;BME280;11256;50.830;12.834;2024-01-15T13:30:43;95698.78;;;1.51;72.26
22181;BME280;11256;50.830;12.834;2024-01-15T13:35:43;95699.03;;;1.55;72.53
22181;BME280;11256;50.830;12.834;2024-01-15T13:40:43;95698.00;;;1.46;72.23
22181;BME280;11256;50.830;12.834;2024-01-15T13:45:47;95700.13;;;1.49;72.63
22181;BME280;11256;50.830;12.834;2024-01-15T13:50:47;95692.97;;;1.44;72.65
22181;BME280;11256;50.830;12.834;2024-01-15T13:55:47;95688.41;;;1.45;72.85
22181;BME280;11256;50.830;12.834;2024-01-15T14:00:48;95720.91;;;1.57;72.64
22181;BME280;11256;50.830;12.834;2024-01-15T14:05:48;95704.41;;;1.45;72.59
22181;BME280;11256;50.830;12.834;2024-01-15T14:10:51;95722.00;;;1.46;72.54
22181;BME280;11256;50.830;12.834;2024-01-15T14:15:52;95720.44;;;1.40;73.12
22181;BME280;11256;50.830;12.834;2024-01-15T14:20:52;95709.25;;;1.38;72.81
22181;BME280;11256;50.830;12.834;2024-01-15T14:25:53;95721.25;;;1.40;72.79
22181;BME280;11256;50.830;12.834;2024-01-15T14:30:53;95735.34;;;1.41;72.48
22181;BME280;11256;50.830;12.834;2024-01-15T14:35:55;95746.59;;;1.38;72.58
22181;BME280;11256;50.830;12.834;2024-01-15T14:40:56;95739.66;;;1.37;72.19
22181;BME280;11256;50.830;12.834;2024-01-15T14:45:56;95747.13;;;1.30;72.92
22181;BME280;11256;50.830;12.834;2024-01-15T14:50:56;95765.25;;;1.33;72.98
22181;BME280;11256;50.830;12.834;2024-01-15T14:55:57;95759.94;;;1.33;72.58
22181;BME280;11256;50.830;12.834;2024-01-15T15:00:58;95749.53;;;1.21;72.85
22181;BME280;11256;50.830;12.834;2024-01-15T15:05:58;95763.16;;;1.20;72.82
22181;BME280;11256;50.830;12.834;2024-01-15T15:11:07;95779.13;;;1.25;73.60
22181;BME280;11256;50.830;12.834;2024-01-15T15:16:08;95778.09;;;1.21;73.75
22181;BME280;11256;50.830;12.834;2024-01-15T15:21:09;95778.09;;;1.21;73.51
22181;BME280;11256;50.830;12.834;2024-01-15T15:26:10;95780.22;;;1.19;74.09
22181;BME280;11256;50.830;12.834;2024-01-15T15:31:10;95787.16;;;1.15;74.01
22181;BME280;11256;50.830;12.834;2024-01-15T15:36:11;95780.75;;;1.16;74.40
22181;BME280;11256;50.830;12.834;2024-01-15T15:41:11;95800.50;;;1.15;74.39
22181;BME280;11256;50.830;12.834;2024-01-15T15:46:12;95803.16;;;1.20;74.39
22181;BME280;11256;50.830;12.834;2024-01-15T15:51:13;95807.16;;;1.12;74.64
22181;BME280;11256;50.830;12.834;2024-01-15T15:56:13;95798.34;;;1.07;74.83
22181;BME280;11256;50.830;12.834;2024-01-15T16:01:14;95805.53;;;1.11;74.98
22181;BME280;11256;50.830;12.834;2024-01-15T16:06:14;95808.50;;;1.10;75.02
22181;BME280;11256;50.830;12.834;2024-01-15T16:11:15;95828.75;;;1.06;75.08
22181;BME280;11256;50.830;12.834;2024-01-15T16:16:15;95821.81;;;1.05;75.37
22181;BME280;11256;50.830;12.834;2024-01-15T16:21:15;95817.00;;;1.02;75.07
22181;BME280;11256;50.830;12.834;2024-01-15T16:26:16;95825.00;;;1.07;75.51
22181;BME280;11256;50.830;12.834;2024-01-15T16:31:16;95819.16;;;0.95;75.35
22181;BME280;11256;50.830;12.834;2024-01-15T16:36:17;95826.06;;;0.96;75.31
22181;BME280;11256;50.830;12.834;2024-01-15T16:41:17;95834.59;;;1.03;75.71
22181;BME280;11256;50.830;12.834;2024-01-15T16:46:18;95843.16;;;1.05;75.27
22181;BME280;11256;50.830;12.834;2024-01-15T16:51:18;95836.75;;;1.01;75.59
22181;BME280;11256;50.830;12.834;2024-01-15T16:56:19;95843.66;;;1.02;75.69
22181;BME280;11256;50.830;12.834;2024-01-15T17:01:20;95829.81;;;1.00;76.00
22181;BME280;11256;50.830;12.834;2024-01-15T17:06:20;95832.22;;;1.01;75.91
22181;BME280;11256;50.830;12.834;2024-01-15T17:11:21;95833.00;;;0.97;76.08
22181;BME280;11256;50.830;12.834;2024-01-15T17:16:21;95850.06;;;0.96;76.30
22181;BME280;11256;50.830;12.834;2024-01-15T17:21:21;95839.41;;;0.91;75.80
22181;BME280;11256;50.830;12.834;2024-01-15T17:26:22;95847.16;;;0.97;76.24
22181;BME280;11256;50.830;12.834;2024-01-15T17:31:22;95856.72;;;0.98;76.27
22181;BME280;11256;50.830;12.834;2024-01-15T17:36:23;95866.06;;;0.96;76.42
22181;BME280;11256;50.830;12.834;2024-01-15T17:41:23;95846.31;;;0.87;75.97
22181;BME280;11256;50.830;12.834;2024-01-15T17:46:24;95862.88;;;0.99;76.34
22181;BME280;11256;50.830;12.834;2024-01-15T17:51:25;95854.88;;;0.89;76.35
22181;BME280;11256;50.830;12.834;2024-01-15T17:56:25;95846.84;;;0.84;76.52
22181;BME280;11256;50.830;12.834;2024-01-15T18:01:26;95866.06;;;0.96;76.40
22181;BME280;11256;50.830;12.834;2024-01-15T18:06:27;95873.81;;;0.97;76.02
22181;BME280;11256;50.830;12.834;2024-01-15T18:11:27;95863.91;;;0.98;76.20
22181;BME280;11256;50.830;12.834;2024-01-15T18:16:28;95872.47;;;1.00;76.08
22181;BME280;11256;50.830;12.834;2024-01-15T18:21:28;95872.22;;;1.01;76.29
22181;BME280;11256;50.830;12.834;2024-01-15T18:26:28;95870.31;;;0.92;76.24
22181;BME280;11256;50.830;12.834;2024-01-15T18:31:29;95883.66;;;0.97;76.82
22181;BME280;11256;50.830;12.834;2024-01-15T18:36:30;95880.72;;;0.98;76.79
22181;BME280;11256;50.830;12.834;2024-01-15T18:41:30;95877.25;;;0.93;76.23
22181;BME280;11256;50.830;12.834;2024-01-15T18:46:30;95876.19;;;0.89;76.45
22181;BME280;11256;50.830;12.834;2024-01-15T18:51:30;95899.38;;;0.98;76.26
22181;BME280;11256;50.830;12.834;2024-01-15T18:56:31;95901.25;;;0.98;76.51
22181;BME280;11256;50.830;12.834;2024-01-15T19:01:33;95890.59;;;0.93;76.16
22181;BME280;11256;50.830;12.834;2024-01-15T19:06:34;95903.38;;;0.96;76.31
22181;BME280;11256;50.830;12.834;2024-01-15T19:11:35;95901.25;;;0.98;76.15
22181;BME280;11256;50.830;12.834;2024-01-15T19:16:35;95904.44;;;0.95;76.31
22181;BME280;11256;50.830;12.834;2024-01-15T19:21:36;95924.97;;;0.94;76.08
22181;BME280;11256;50.830;12.834;2024-01-15T19:26:37;95932.97;;;0.94;76.02
22181;BME280;11256;50.830;12.834;2024-01-15T19:31:37;95943.09;;;0.97;76.23
22181;BME280;11256;50.830;12.834;2024-01-15T19:36:37;95935.63;;;0.99;76.36
22181;BME280;11256;50.830;12.834;2024-01-15T19:41:39;95943.38;;;0.96;76.32
22181;BME280;11256;50.830;12.834;2024-01-15T19:46:40;95933.75;;;0.85;76.55
22181;BME280;11256;50.830;12.834;2024-01-15T19:51:40;95955.09;;;0.95;76.60
22181;BME280;11256;50.830;12.834;2024-01-15T19:56:41;95962.03;;;0.96;76.44
22181;BME280;11256;50.830;12.834;2024-01-15T20:01:41;95962.03;;;1.01;76.94
22181;BME280;11256;50.830;12.834;2024-01-15T20:06:42;95968.94;;;0.97;76.55
22181;BME280;11256;50.830;12.834;2024-01-15T20:11:43;95991.88;;;0.98;77.05
22181;BME280;11256;50.830;12.834;2024-01-15T20:16:44;95991.38;;;1.01;77.02
22181;BME280;11256;50.830;12.834;2024-01-15T20:21:45;95995.88;;;1.00;77.55
22181;BME280;11256;50.830;12.834;2024-01-15T20:26:45;95992.94;;;0.97;77.00
22181;BME280;11256;50.830;12.834;2024-01-15T20:31:46;96014.28;;;0.97;77.41
22181;BME280;11256;50.830;12.834;2024-01-15T20:36:47;96020.16;;;0.99;77.76
22181;BME280;11256;50.830;12.834;2024-01-15T20:41:47;96016.94;;;0.97;77.78
22181;BME280;11256;50.830;12.834;2024-01-15T20:46:49;96009.97;;;0.86;77.81
22181;BME280;11256;50.830;12.834;2024-01-15T20:51:49;96044.41;;;0.97;78.35
22181;BME280;11256;50.830;12.834;2024-01-15T20:56:50;96029.19;;;0.88;77.54
22181;BME280;11256;50.830;12.834;2024-01-15T21:01:51;96052.91;;;0.94;78.13
22181;BME280;11256;50.830;12.834;2024-01-15T21:06:51;96052.38;;;0.92;77.93
22181;BME280;11256;50.830;12.834;2024-01-15T21:11:52;96055.06;;;0.97;77.57
22181;BME280;11256;50.830;12.834;2024-01-15T21:16:52;96070.25;;;0.97;77.89
22181;BME280;11256;50.830;12.834;2024-01-15T21:21:52;96066.25;;;0.94;77.29
22181;BME280;11256;50.830;12.834;2024-01-15T21:26:53;96061.66;;;0.85;77.60
22181;BME280;11256;50.830;12.834;2024-01-15T21:31:54;96088.88;;;0.92;77.45
22181;BME280;11256;50.830;12.834;2024-01-15T21:36:54;96095.81;;;0.88;77.32
22181;BME280;11256;50.830;12.834;2024-01-15T21:41:55;96104.63;;;0.93;77.40
22181;BME280;11256;50.830;12.834;2024-01-15T21:46:56;96089.91;;;0.86;76.74
22181;BME280;11256;50.830;12.834;2024-01-15T21:51:56;96110.75;;;0.89;77.23
22181;BME280;11256;50.830;12.834;2024-01-15T21:56:56;96104.84;;;0.87;76.71
22181;BME280;11256;50.830;12.834;2024-01-15T22:01:57;96129.97;;;0.96;77.08
22181;BME280;11256;50.830;12.834;2024-01-15T22:06:57;96158.19;;;0.92;77.07
22181;BME280;11256;50.830;12.834;2024-01-15T22:11:57;96151.00;;;0.92;77.03
22181;BME280;11256;50.830;12.834;2024-01-15T22:16:58;96165.66;;;0.90;77.06
22181;BME280;11256;50.830;12.834;2024-01-15T22:21:58;96177.13;;;0.90;76.55
22181;BME280;11256;50.830;12.834;2024-01-15T22:26:59;96185.91;;;0.91;76.40
22181;BME280;11256;50.830;12.834;2024-01-15T22:31:59;96171.72;;;0.80;76.79
22181;BME280;11256;50.830;12.834;2024-01-15T22:36:59;96205.88;;;0.88;76.80
22181;BME280;11256;50.830;12.834;2024-01-15T22:42:00;96206.16;;;0.92;76.57
22181;BME280;11256;50.830;12.834;2024-01-15T22:47:00;96210.97;;;0.90;76.43
22181;BME280;11256;50.830;12.834;2024-01-15T22:52:00;96212.03;;;0.89;76.37
22181;BME280;11256;50.830;12.834;2024-01-15T22:57:01;96210.44;;;0.88;76.69
22181;BME280;11256;50.830;12.834;2024-01-15T23:02:01;96203.47;;;0.82;76.68
22181;BME280;11256;50.830;12.834;2024-01-15T23:07:01;96210.94;;;0.85;76.58
22181;BME280;11256;50.830;12.834;2024-01-15T23:12:02;96216.34;;;0.95;76.12
22181;BME280;11256;50.830;12.834;2024-01-15T23:17:02;96222.69;;;0.89;76.24
22181;BME280;11256;50.830;12.834;2024-01-15T23:22:03;96203.97;;;0.79;76.51
22181;BME280;11256;50.830;12.834;2024-01-15T23:27:03;96216.53;;;0.88;76.11
22181;BME280;11256;50.830;12.834;2024-01-15T23:32:04;96222.41;;;0.85;76.16
22181;BME280;11256;50.830;12.834;2024-01-15T23:37:05;96233.91;;;0.91;76.31
22181;BME280;11256;50.830;12.834;2024-01-15T23:42:05;96238.97;;;0.92;76.24
22181;BME280;11256;50.830;12.834;2024-01-15T23:47:06;96233.34;;;0.89;76.18
22181;BME280;11256;50.830;12.834;2024-01-15T23:52:06;96244.31;;;0.92;75.92
22181;BME280;11256;50.830;12.834;2024-01-15T23:57:07;96233.34;;;0.89;76.46
